Time;durP1;ratioP1;P1;durP2;ratioP2;P2;SDS_P1;SDS_P2;PMS_P1;PMS_P2;Temp;Humidity;BMP_temperature;BMP_pressure;BME280_temperature;BME280_humidity;BME280_pressure;Samples;Min_cycle;Max_cycle;Signal;HPM_P1;HPM_P2
2023/03/04 10:24:56;;;;;;;45.55;25.58;;;8.00;99.90;;;;;;5106146;27;1404119;-61
2023/03/04 10:27:23;;;;;;;43.33;24.55;;;8.00;99.90;;;;;;5131571;27;20055;-64
2023/03/04 10:29:49;;;;;;;40.30;23.52;;;8.20;99.90;;;;;;5131566;28;20023;-61
2023/03/04 10:32:19;;;;;;;41.72;24.27;;;8.40;99.90;;;;;;5131623;27;20427;-63
2023/03/04 10:34:45;;;;;;;37.45;21.65;;;8.80;99.90;;;;;;5131704;27;20024;-65
2023/03/04 10:37:11;;;;;;;43.95;24.05;;;9.10;99.90;;;;;;5131562;28;20026;-63
2023/03/04 10:39:42;;;;;;;32.50;22.40;;;9.40;99.90;;;;;;5131186;28;20020;-64
2023/03/04 10:42:14;;;;;;;33.28;21.02;;;9.60;99.90;;;;;;5131464;27;20061;-64
2023/03/04 10:44:43;;;;;;;30.08;20.17;;;9.90;99.90;;;;;;5131286;28;20034;-63
2023/03/04 10:47:10;;;;;;;35.20;20.83;;;10.10;99.90;;;;;;5131353;27;20027;-62
2023/03/04 10:49:53;;;;;;;32.35;19.73;;;10.20;99.90;;;;;;5131393;27;20015;-65
2023/03/04 10:52:30;;;;;;;27.73;18.05;;;10.30;99.90;;;;;;5129867;28;20106;-61
2023/03/04 10:54:59;;;;;;;25.90;16.77;;;10.30;99.90;;;;;;5131029;27;20094;-66
2023/03/04 10:57:55;;;;;;;29.08;17.13;;;10.50;99.90;;;;;;5131064;27;20028;-64
2023/03/04 11:00:34;;;;;;;28.10;17.98;;;10.50;99.90;;;;;;5114306;27;20377;-66
2023/03/04 11:03:23;;;;;;;23.13;16.42;;;10.60;99.90;;;;;;5131003;27;20023;-65
2023/03/04 11:05:49;;;;;;;28.15;18.05;;;10.70;99.90;;;;;;5118149;28;20035;-64
2023/03/04 11:08:20;;;;;;;34.83;18.95;;;10.90;99.90;;;;;;5130926;28;20020;-64
2023/03/04 11:10:48;;;;;;;24.63;16.40;;;10.90;99.90;;;;;;5130690;27;20108;-65
2023/03/04 11:13:19;;;;;;;25.27;17.80;;;10.90;99.90;;;;;;5130779;27;20114;-66
2023/03/04 11:16:03;;;;;;;37.97;19.90;;;10.90;99.90;;;;;;5130824;27;20489;-65
2023/03/04 11:18:51;;;;;;;28.13;17.65;;;11.00;99.90;;;;;;5130658;27;20461;-66
2023/03/04 11:21:20;;;;;;;29.13;17.50;;;10.90;99.90;;;;;;5130765;27;20015;-65
2023/03/04 11:24:00;;;;;;;28.80;17.00;;;11.00;99.90;;;;;;5130070;27;20051;-65
2023/03/04 11:26:39;;;;;;;32.60;17.52;;;11.10;99.90;;;;;;5130566;28;20469;-64
2023/03/04 11:29:32;;;;;;;27.25;17.50;;;11.20;99.90;;;;;;5130370;27;20027;-64
2023/03/04 11:32:21;;;;;;;36.83;20.65;;;11.20;99.90;;;;;;5130501;27;20032;-64
2023/03/04 11:35:01;;;;;;;33.08;19.88;;;11.20;99.90;;;;;;5125117;27;20019;-65
2023/03/04 11:37:42;;;;;;;33.67;20.90;;;11.10;99.90;;;;;;5116540;28;20020;-63
2023/03/04 11:40:32;;;;;;;48.42;25.85;;;11.10;99.90;;;;;;5115389;28;20027;-63
2023/03/04 11:43:37;;;;;;;41.65;22.48;;;11.00;99.90;;;;;;5116494;28;20053;-65
2023/03/04 11:46:30;;;;;;;36.97;22.27;;;10.80;99.90;;;;;;5034024;28;20474;-63
2023/03/04 11:49:27;;;;;;;37.20;22.58;;;10.80;99.90;;;;;;5116383;28;20030;-63
2023/03/04 11:52:17;;;;;;;37.08;22.63;;;11.00;99.90;;;;;;5115132;28;20020;-62
2023/03/04 11:54:56;;;;;;;44.95;26.40;;;11.10;99.90;;;;;;5116331;28;20028;-64
2023/03/04 11:57:59;;;;;;;52.22;30.00;;;11.20;99.90;;;;;;5116483;28;20043;-63
2023/03/04 12:00:40;;;;;;;36.75;25.27;;;11.30;99.90;;;;;;5114982;28;20028;-64
2023/03/04 12:03:25;;;;;;;51.13;30.00;;;11.40;99.90;;;;;;5116349;28;20051;-66
2023/03/04 12:06:28;;;;;;;60.53;32.13;;;11.40;99.90;;;;;;5116101;28;20070;-64
2023/03/04 12:09:39;;;;;;;61.72;33.72;;;11.10;99.90;;;;;;5115850;28;20533;-65
2023/03/04 12:12:30;;;;;;;68.97;38.85;;;10.90;99.90;;;;;;5078844;28;20430;-64
2023/03/04 12:15:19;;;;;;;67.65;37.70;;;11.20;99.90;;;;;;5115993;28;20050;-63
2023/03/04 12:18:22;;;;;;;64.47;32.13;;;11.20;99.90;;;;;;5116039;28;20031;-63
2023/03/04 12:20:56;;;;;;;49.42;29.90;;;11.20;99.90;;;;;;5115924;28;20031;-65
2023/03/04 12:23:49;;;;;;;53.03;29.33;;;11.30;99.90;;;;;;5115327;28;20068;-62
2023/03/04 12:26:35;;;;;;;64.20;38.20;;;11.50;99.90;;;;;;5115794;28;20073;-64
2023/03/04 12:29:09;;;;;;;70.13;35.55;;;11.60;99.90;;;;;;5115656;28;20023;-64
2023/03/04 12:31:41;;;;;;;70.00;40.95;;;11.60;99.90;;;;;;5114350;28;20027;-64
2023/03/04 12:34:26;;;;;;;75.25;39.30;;;11.60;99.90;;;;;;5115541;28;20465;-66
2023/03/04 12:37:26;;;;;;;70.63;35.13;;;11.50;99.90;;;;;;5115406;28;20026;-66
2023/03/04 12:40:15;;;;;;;66.03;36.40;;;11.40;99.90;;;;;;5114194;28;20023;-65
2023/03/04 12:42:53;;;;;;;73.05;37.03;;;11.50;99.90;;;;;;5115342;28;20027;-63
2023/03/04 12:45:27;;;;;;;73.30;40.25;;;11.70;99.90;;;;;;5115381;28;20024;-65
2023/03/04 12:48:08;;;;;;;68.65;36.35;;;11.70;99.90;;;;;;5114252;28;20019;-63
2023/03/04 12:50:56;;;;;;;64.85;36.05;;;11.60;99.90;;;;;;5115101;28;20015;-66
2023/03/04 12:53:42;;;;;;;58.63;34.22;;;11.60;99.90;;;;;;5115211;28;20020;-66
2023/03/04 12:56:39;;;;;;;83.03;43.15;;;11.60;99.90;;;;;;5115156;28;20019;-64
2023/03/04 12:59:09;;;;;;;95.10;44.35;;;11.50;99.90;;;;;;5115111;28;20384;-64
2023/03/04 13:01:55;;;;;;;81.13;40.97;;;11.20;99.90;;;;;;5115023;28;20027;-65
2023/03/04 13:04:45;;;;;;;78.05;40.30;;;11.30;99.90;;;;;;5114935;28;20049;-65
2023/03/04 13:07:15;;;;;;;95.13;46.28;;;11.50;99.90;;;;;;5114954;28;20080;-64
2023/03/04 13:09:59;;;;;;;81.47;43.33;;;11.30;99.90;;;;;;5114994;28;20028;-64
2023/03/04 13:12:25;;;;;;;85.47;43.25;;;11.40;99.90;;;;;;5114864;28;20020;-65
2023/03/04 13:15:06;;;;;;;90.47;41.30;;;11.50;99.90;;;;;;5114846;28;20024;-65
2023/03/04 13:17:51;;;;;;;104.78;48.08;;;11.70;99.90;;;;;;5114639;28;20064;-63
2023/03/04 13:20:40;;;;;;;96.97;43.22;;;11.70;99.90;;;;;;5114550;28;20104;-64
2023/03/04 13:23:08;;;;;;;88.38;43.10;;;11.60;99.90;;;;;;5114216;28;20043;-66
2023/03/04 13:25:41;;;;;;;93.45;43.08;;;11.30;99.90;;;;;;5114570;28;20555;-66
2023/03/04 13:28:14;;;;;;;89.72;42.75;;;11.30;99.90;;;;;;5114570;28;20027;-65
2023/03/04 13:30:39;;;;;;;86.82;38.97;;;11.30;99.90;;;;;;5114588;28;20377;-65
2023/03/04 13:33:08;;;;;;;74.43;36.42;;;11.30;99.90;;;;;;5114387;28;20023;-64
2023/03/04 13:35:48;;;;;;;77.20;36.30;;;11.30;99.90;;;;;;5114374;28;20041;-63
2023/03/04 13:38:23;;;;;;;72.50;36.33;;;11.30;99.90;;;;;;5114404;28;20062;-66
2023/03/04 13:41:19;;;;;;;78.97;37.58;;;11.30;99.90;;;;;;5113008;28;20046;-66
2023/03/04 13:43:48;;;;;;;81.40;39.28;;;11.30;99.90;;;;;;5114034;28;20066;-64
2023/03/04 13:46:19;;;;;;;85.93;42.42;;;11.40;99.90;;;;;;5112967;28;20073;-66
2023/03/04 13:48:51;;;;;;;90.55;47.13;;;11.50;99.90;;;;;;5114048;28;20078;-65
2023/03/04 13:51:36;;;;;;;92.18;44.42;;;11.30;99.90;;;;;;5114057;28;20019;-65
2023/03/04 13:54:02;;;;;;;77.00;40.72;;;11.30;99.90;;;;;;5114192;28;20019;-66
2023/03/04 13:56:34;;;;;;;84.55;43.72;;;11.30;99.90;;;;;;5114011;28;20354;-66
2023/03/04 13:59:06;;;;;;;94.07;46.78;;;11.30;99.90;;;;;;5113847;28;20022;-66
2023/03/04 14:01:42;;;;;;;111.88;52.60;;;11.20;99.90;;;;;;5113959;28;20020;-65
2023/03/04 14:04:16;;;;;;;99.13;49.78;;;11.10;99.90;;;;;;5113714;28;20081;-63
2023/03/04 14:06:44;;;;;;;77.93;41.60;;;11.00;99.90;;;;;;5113997;28;20111;-66
2023/03/04 14:09:23;;;;;;;86.88;42.60;;;11.00;99.90;;;;;;5113867;28;20111;-63
2023/03/04 14:11:55;;;;;;;84.72;43.63;;;11.00;99.90;;;;;;5113883;28;20019;-65
2023/03/04 14:14:28;;;;;;;67.97;36.22;;;10.90;99.90;;;;;;5113767;28;20045;-65
2023/03/04 14:16:56;;;;;;;85.30;40.08;;;11.00;99.90;;;;;;5113874;28;20543;-64
2023/03/04 14:19:26;;;;;;;76.22;37.65;;;11.00;99.90;;;;;;5113640;27;20049;-64
2023/03/04 14:21:53;;;;;;;63.22;34.22;;;10.90;99.90;;;;;;5113926;28;20457;-64
2023/03/04 14:24:21;;;;;;;60.95;32.70;;;10.90;99.90;;;;;;5113511;28;20127;-66
2023/03/04 14:26:48;;;;;;;53.03;30.85;;;11.10;99.90;;;;;;5113600;28;20084;-64
2023/03/04 14:29:28;;;;;;;52.03;29.88;;;11.20;99.90;;;;;;5113704;28;20484;-66
2023/03/04 14:31:54;;;;;;;55.53;30.55;;;11.20;99.90;;;;;;5113727;28;20377;-65
2023/03/04 14:34:35;;;;;;;60.42;32.40;;;11.30;99.90;;;;;;5113396;28;20055;-63
2023/03/04 14:37:04;;;;;;;74.60;36.53;;;11.30;99.90;;;;;;5113721;28;20024;-66
2023/03/04 14:39:34;;;;;;;84.50;40.50;;;11.30;99.90;;;;;;5113545;28;20027;-65
2023/03/04 14:42:13;;;;;;;55.55;32.15;;;11.20;99.90;;;;;;5113697;28;20047;-62
2023/03/04 14:44:49;;;;;;;46.42;29.45;;;11.20;99.90;;;;;;5113472;28;20370;-64
2023/03/04 14:47:27;;;;;;;45.90;27.67;;;11.20;99.90;;;;;;5113363;28;20023;-63
2023/03/04 14:49:53;;;;;;;69.78;36.15;;;11.20;99.90;;;;;;5112291;28;20024;-62
2023/03/04 14:52:42;;;;;;;47.95;28.92;;;11.30;99.90;;;;;;5112146;28;20111;-64
2023/03/04 14:55:22;;;;;;;48.80;30.13;;;11.30;99.90;;;;;;5113434;28;20045;-63
2023/03/04 14:57:57;;;;;;;65.72;38.60;;;11.30;99.90;;;;;;5112168;28;20026;-63
2023/03/04 15:00:33;;;;;;;62.65;33.63;;;11.30;99.90;;;;;;5113415;28;20027;-64
2023/03/04 15:03:25;;;;;;;56.88;33.72;;;11.30;99.90;;;;;;5113423;28;20477;-62
2023/03/04 15:05:53;;;;;;;59.25;35.42;;;11.40;99.90;;;;;;5113253;28;20423;-64
2023/03/04 15:08:36;;;;;;;54.08;33.63;;;11.40;99.90;;;;;;5113450;28;20051;-63
2023/03/04 15:11:04;;;;;;;56.75;33.08;;;11.40;99.90;;;;;;5115966;28;20377;-63
2023/03/04 15:13:50;;;;;;;52.30;31.95;;;11.50;99.90;;;;;;5117169;28;20034;-65
2023/03/04 15:16:21;;;;;;;53.80;33.42;;;11.50;99.90;;;;;;5115567;28;20030;-64
2023/03/04 15:19:24;;;;;;;52.58;32.53;;;11.50;99.90;;;;;;5117090;28;20465;-63
2023/03/04 15:21:50;;;;;;;52.65;32.75;;;11.40;99.90;;;;;;5117059;27;20045;-65
2023/03/04 15:24:16;;;;;;;50.67;32.45;;;11.40;99.90;;;;;;5116716;28;20404;-64
2023/03/04 15:26:44;;;;;;;49.25;31.50;;;11.40;99.90;;;;;;5116789;28;20377;-64
2023/03/04 15:29:19;;;;;;;51.55;31.75;;;11.30;99.90;;;;;;5116863;28;20039;-63
2023/03/04 15:31:49;;;;;;;51.28;31.58;;;11.30;99.90;;;;;;5116616;28;20047;-65
2023/03/04 15:34:16;;;;;;;54.72;32.90;;;11.30;99.90;;;;;;5116616;28;20034;-63
2023/03/04 15:36:48;;;;;;;109.60;60.47;;;11.20;99.90;;;;;;5116836;28;20030;-65
2023/03/04 15:39:15;;;;;;;71.38;45.95;;;11.20;99.90;;;;;;5116738;28;20020;-66
2023/03/04 15:41:41;;;;;;;74.63;47.90;;;11.10;99.90;;;;;;5116557;28;20020;-66
2023/03/04 15:44:09;;;;;;;88.38;53.00;;;11.00;99.90;;;;;;5116356;28;20515;-63
2023/03/04 15:46:34;;;;;;;96.53;56.45;;;11.00;99.90;;;;;;5116598;28;20047;-64
2023/03/04 15:49:00;;;;;;;88.95;54.15;;;11.00;99.90;;;;;;5116461;28;20028;-66
2023/03/04 15:51:26;;;;;;;83.07;52.05;;;10.90;99.90;;;;;;5116567;28;20024;-64
2023/03/04 15:53:55;;;;;;;90.03;55.22;;;10.90;99.90;;;;;;5114975;28;20553;-64
2023/03/04 15:56:24;;;;;;;89.10;53.70;;;10.80;99.90;;;;;;5116219;28;20023;-63
2023/03/04 15:59:00;;;;;;;86.95;53.42;;;10.80;99.90;;;;;;5116178;28;20074;-66
2023/03/04 16:01:26;;;;;;;106.25;59.20;;;10.80;99.90;;;;;;5116334;28;20015;-65
2023/03/04 16:03:52;;;;;;;83.18;51.67;;;10.70;99.90;;;;;;5116015;28;20126;-64
2023/03/04 16:06:20;;;;;;;101.55;55.47;;;10.60;99.90;;;;;;5116249;27;20026;-63
2023/03/04 16:08:46;;;;;;;106.88;59.58;;;10.50;99.90;;;;;;5116077;28;20055;-64
2023/03/04 16:11:22;;;;;;;112.10;64.20;;;10.10;99.90;;;;;;5114616;28;20381;-64
2023/03/04 16:13:48;;;;;;;135.57;83.53;;;9.80;99.90;;;;;;5115880;28;20380;-64
2023/03/04 16:16:15;;;;;;;136.93;83.55;;;9.60;99.90;;;;;;5115938;27;20020;-66
2023/03/04 16:18:41;;;;;;;160.13;92.40;;;9.30;99.90;;;;;;5115954;28;20084;-65
2023/03/04 16:21:13;;;;;;;165.98;100.40;;;9.20;99.90;;;;;;5115787;28;20021;-66
2023/03/04 16:23:42;;;;;;;177.10;103.53;;;9.00;99.90;;;;;;5115349;28;20075;-65
2023/03/04 16:26:12;;;;;;;188.35;104.95;;;8.70;99.90;;;;;;5115867;28;20015;-64
2023/03/04 16:28:38;;;;;;;170.43;94.13;;;8.40;99.90;;;;;;5115566;28;20016;-64
2023/03/04 16:31:04;;;;;;;159.45;77.60;;;8.10;99.90;;;;;;5115591;28;20016;-64
2023/03/04 16:33:30;;;;;;;141.55;72.43;;;8.00;99.90;;;;;;5115684;28;20050;-65
2023/03/04 16:35:55;;;;;;;181.40;96.25;;;7.90;99.90;;;;;;5115519;28;20465;-64
2023/03/04 16:38:28;;;;;;;205.00;112.18;;;7.90;99.90;;;;;;5115503;28;20016;-65
2023/03/04 16:40:55;;;;;;;226.15;130.95;;;7.90;99.90;;;;;;5115570;28;20027;-65
2023/03/04 16:43:21;;;;;;;212.38;117.70;;;7.70;99.90;;;;;;5115192;27;20020;-66
2023/03/04 16:45:47;;;;;;;239.02;128.45;;;7.50;99.90;;;;;;5115296;28;20102;-63
2023/03/04 16:48:14;;;;;;;250.88;135.32;;;7.40;99.90;;;;;;5115509;28;20027;-66
2023/03/04 16:50:40;;;;;;;256.73;132.43;;;7.30;99.90;;;;;;5115276;28;20070;-65
2023/03/04 16:53:22;;;;;;;274.50;139.20;;;7.30;99.90;;;;;;5115145;28;20469;-66
2023/03/04 16:55:48;;;;;;;254.23;123.00;;;7.20;99.90;;;;;;5115201;28;20065;-64
2023/03/04 16:58:13;;;;;;;270.33;132.30;;;7.10;99.90;;;;;;5114976;28;20020;-65
2023/03/04 17:00:39;;;;;;;228.40;117.65;;;7.00;99.90;;;;;;5114952;28;20103;-65
2023/03/04 17:03:05;;;;;;;218.80;108.53;;;7.10;99.90;;;;;;5115028;28;20039;-64
2023/03/04 17:05:32;;;;;;;262.25;136.35;;;7.10;99.90;;;;;;5114941;28;20019;-64
2023/03/04 17:07:58;;;;;;;259.33;130.00;;;7.10;99.90;;;;;;5114841;28;20095;-64
2023/03/04 17:10:24;;;;;;;317.33;147.98;;;7.10;99.90;;;;;;5114945;28;20050;-64
2023/03/04 17:12:50;;;;;;;273.63;136.85;;;7.00;99.90;;;;;;5114740;27;20015;-63
2023/03/04 17:15:16;;;;;;;212.63;117.15;;;6.90;99.90;;;;;;5114662;28;20049;-65
2023/03/04 17:17:43;;;;;;;196.82;106.40;;;6.90;99.90;;;;;;5114740;28;20012;-64
2023/03/04 17:20:13;;;;;;;217.32;123.70;;;6.90;99.90;;;;;;5114741;28;20026;-65
2023/03/04 17:22:38;;;;;;;140.68;78.57;;;6.90;99.90;;;;;;5114530;28;20524;-66
2023/03/04 17:25:05;;;;;;;118.25;64.45;;;6.80;99.90;;;;;;5113192;28;20191;-64
2023/03/04 17:27:30;;;;;;;178.48;89.13;;;6.70;99.90;;;;;;5114415;28;20109;-65
2023/03/04 17:29:56;;;;;;;134.93;69.05;;;6.60;99.90;;;;;;5114466;28;20019;-66
2023/03/04 17:32:22;;;;;;;150.95;83.53;;;6.50;99.90;;;;;;5113899;28;20030;-65
2023/03/04 17:34:48;;;;;;;165.75;92.30;;;6.50;99.90;;;;;;5114481;28;20431;-65
2023/03/04 17:37:14;;;;;;;158.48;89.72;;;6.50;99.90;;;;;;5114403;27;20050;-62
2023/03/04 17:39:40;;;;;;;150.88;83.15;;;6.60;99.90;;;;;;5112935;28;20027;-65
2023/03/04 17:42:06;;;;;;;127.22;71.32;;;6.60;99.90;;;;;;5114329;28;20016;-63
2023/03/04 17:44:31;;;;;;;153.32;88.03;;;6.60;99.90;;;;;;5114785;28;20024;-63
2023/03/04 17:46:58;;;;;;;157.88;95.00;;;6.50;99.90;;;;;;5114190;28;20098;-65
2023/03/04 17:49:23;;;;;;;134.10;82.72;;;6.60;99.90;;;;;;5114333;28;20016;-65
2023/03/04 17:51:50;;;;;;;178.18;111.88;;;6.70;99.90;;;;;;5114202;28;20020;-65
2023/03/04 17:54:16;;;;;;;136.88;86.80;;;6.80;99.90;;;;;;5114038;28;20093;-66
2023/03/04 17:56:43;;;;;;;185.73;110.97;;;6.90;99.90;;;;;;5113894;28;20016;-65
2023/03/04 17:59:15;;;;;;;165.45;105.68;;;7.00;99.90;;;;;;5114080;28;20016;-64
2023/03/04 18:01:43;;;;;;;200.48;119.65;;;6.90;99.90;;;;;;5114515;28;20053;-65
2023/03/04 18:04:09;;;;;;;158.25;97.03;;;6.80;99.90;;;;;;5113913;28;20028;-65
2023/03/04 18:06:35;;;;;;;158.35;91.93;;;6.70;99.90;;;;;;5113947;28;20046;-64
2023/03/04 18:09:01;;;;;;;139.35;83.13;;;6.80;99.90;;;;;;5113721;28;20088;-67
2023/03/04 18:11:27;;;;;;;116.18;70.75;;;6.80;99.90;;;;;;5113924;28;20015;-64
2023/03/04 18:13:53;;;;;;;114.25;68.70;;;6.90;99.90;;;;;;5113879;28;20381;-64
2023/03/04 18:16:25;;;;;;;100.10;60.95;;;6.90;99.90;;;;;;5113734;28;20016;-63
2023/03/04 18:18:52;;;;;;;106.82;64.55;;;7.00;99.90;;;;;;5113786;28;20055;-65
2023/03/04 18:21:18;;;;;;;176.20;104.82;;;7.00;99.90;;;;;;5113777;28;20103;-65
